createdAt,value
2023-05-03T00:08:52.380Z,0.46
2023-05-03T00:20:52.833Z,0.67
2023-05-03T00:32:53.325Z,0.62
2023-05-03T00:44:55.208Z,0.82
2023-05-03T00:56:54.222Z,0.77
2023-05-03T01:08:54.661Z,0.53
2023-05-03T01:20:55.122Z,0.60
2023-05-03T01:32:55.606Z,0.25
2023-05-03T01:44:56.035Z,0.49
2023-05-03T01:56:56.499Z,0.72
2023-05-03T02:08:56.959Z,0.63
2023-05-03T02:20:57.384Z,0.79
2023-05-03T02:32:57.897Z,0.44
2023-05-03T02:44:58.303Z,0.71
2023-05-03T02:56:58.734Z,0.91
2023-05-03T03:08:59.173Z,0.54
2023-05-03T03:20:59.666Z,0.97
2023-05-03T03:33:00.154Z,1.31
2023-05-03T03:45:00.549Z,1.33
2023-05-03T03:57:01.044Z,0.52
2023-05-03T04:09:01.468Z,0.78
2023-05-03T04:21:01.907Z,0.82
2023-05-03T04:33:02.425Z,0.47
2023-05-03T04:45:02.832Z,0.87
2023-05-03T04:57:03.306Z,1.93
2023-05-03T05:09:03.780Z,1.51
2023-05-03T05:21:04.175Z,1.57
2023-05-03T05:33:04.692Z,0.73
2023-05-03T05:45:05.081Z,3.47
2023-05-03T05:57:05.517Z,1.97
2023-05-03T06:09:16.629Z,1.30
2023-05-03T06:21:06.437Z,3.04
2023-05-03T06:33:06.959Z,2.92
2023-05-03T06:45:07.327Z,4.66
2023-05-03T06:57:07.819Z,4.64
2023-05-03T07:09:08.246Z,2.68
2023-05-03T07:21:09.459Z,2.37
2023-05-03T07:33:09.191Z,3.07
2023-05-03T07:45:09.627Z,2.70
2023-05-03T07:57:10.064Z,2.46
2023-05-03T08:09:10.525Z,3.13
2023-05-03T08:21:10.969Z,4.57
2023-05-03T08:33:11.495Z,5.67
2023-05-03T08:45:11.889Z,4.09
2023-05-03T08:57:12.376Z,5.57
2023-05-03T09:09:12.870Z,3.00
2023-05-03T09:21:13.257Z,3.98
2023-05-03T09:33:13.688Z,3.93
2023-05-03T09:45:14.173Z,4.57
2023-05-03T09:57:14.629Z,4.36
2023-05-03T10:09:15.081Z,2.23
2023-05-03T10:21:15.965Z,5.46
2023-05-03T10:33:15.984Z,2.54
2023-05-03T10:45:16.413Z,2.65
2023-05-03T10:57:16.871Z,3.18
2023-05-03T11:09:17.327Z,2.05
2023-05-03T11:21:17.976Z,2.45
2023-05-03T11:33:18.209Z,2.79
2023-05-03T11:45:19.792Z,2.68
2023-05-03T11:57:19.185Z,2.17
2023-05-03T12:09:21.243Z,1.69
2023-05-03T12:33:22.577Z,2.44
2023-05-03T12:45:21.752Z,2.61
2023-05-03T12:57:23.661Z,2.57
2023-05-03T13:09:28.314Z,2.29
2023-05-03T13:21:22.333Z,3.30
2023-05-03T13:33:22.832Z,1.94
2023-05-03T13:45:23.283Z,3.00
2023-05-03T13:57:24.680Z,1.96
2023-05-03T14:09:24.148Z,2.97
2023-05-03T14:21:24.641Z,1.82
2023-05-03T14:33:25.083Z,2.17
2023-05-03T14:45:25.532Z,2.61
2023-05-03T14:57:25.966Z,1.20
2023-05-03T15:09:26.442Z,2.47
2023-05-03T15:21:26.921Z,4.02
2023-05-03T15:33:27.395Z,1.42
2023-05-03T15:45:27.778Z,1.41
2023-05-03T15:57:28.896Z,2.23
2023-05-03T16:09:28.720Z,1.72
2023-05-03T16:21:29.141Z,1.39
2023-05-03T16:33:29.595Z,0.76
2023-05-03T16:45:30.107Z,0.29
2023-05-03T16:57:30.518Z,0.39
2023-05-03T17:09:30.951Z,0.91
2023-05-03T17:21:31.434Z,1.97
2023-05-03T17:33:31.868Z,1.72
2023-05-03T17:45:32.345Z,2.21
2023-05-03T17:57:32.790Z,1.48
2023-05-03T18:09:33.255Z,0.95
2023-05-03T18:21:33.733Z,1.06
2023-05-03T18:33:34.199Z,0.27
2023-05-03T18:45:34.587Z,1.06
2023-05-03T18:57:35.043Z,1.06
2023-05-03T19:09:35.515Z,0.57
2023-05-03T19:21:36.002Z,0.67
2023-05-03T19:33:36.439Z,0.38
2023-05-03T19:45:36.851Z,0.20
2023-05-03T19:57:37.364Z,1.12
2023-05-03T20:09:37.792Z,1.11
2023-05-03T20:21:38.222Z,0.91
2023-05-03T20:33:38.648Z,0.79
2023-05-03T20:45:39.175Z,0.79
2023-05-03T20:57:39.587Z,0.68
2023-05-03T21:09:40.054Z,2.10
2023-05-03T21:21:40.477Z,1.89
2023-05-03T21:33:40.941Z,1.60
2023-05-03T21:45:41.416Z,2.00
2023-05-03T21:57:41.877Z,1.56
2023-05-03T22:09:42.281Z,0.81
2023-05-03T22:21:42.740Z,1.57
2023-05-03T22:33:43.217Z,0.58
2023-05-03T22:45:43.692Z,0.39
2023-05-03T22:57:44.110Z,0.53
2023-05-03T23:09:44.547Z,0.49
2023-05-03T23:21:45.054Z,0.62
2023-05-03T23:33:45.471Z,0.71
2023-05-03T23:45:45.968Z,0.83
2023-05-03T23:57:46.373Z,0.49
